sensor_id;sensor_type;location;lat;lon;timestamp;pressure;altitude;pressure_sealevel;temperature;humidity
61026;BME280;46911;32.650;-16.902;2022-11-11T00:00:05;101754.13;;;17.17;68.17
61026;BME280;46911;32.650;-16.902;2022-11-11T00:02:25;101760.50;;;17.16;67.88
61026;BME280;46911;32.650;-16.902;2022-11-11T00:04:45;101743.09;;;17.09;67.82
61026;BME280;46911;32.650;-16.902;2022-11-11T00:07:04;101754.63;;;17.11;67.52
61026;BME280;46911;32.650;-16.902;2022-11-11T00:09:26;101759.13;;;17.10;67.41
61026;BME280;46911;32.650;-16.902;2022-11-11T00:11:45;101752.53;;;17.14;67.44
61026;BME280;46911;32.650;-16.902;2022-11-11T00:14:04;101740.78;;;17.04;67.14
61026;BME280;46911;32.650;-16.902;2022-11-11T00:16:23;101747.38;;;17.11;67.08
61026;BME280;46911;32.650;-16.902;2022-11-11T00:18:44;101744.06;;;17.07;66.97
61026;BME280;46911;32.650;-16.902;2022-11-11T00:21:22;101739.69;;;17.06;66.71
61026;BME280;46911;32.650;-16.902;2022-11-11T00:24:01;101734.75;;;17.00;66.49
61026;BME280;46911;32.650;-16.902;2022-11-11T00:26:40;101742.25;;;17.08;66.38
61026;BME280;46911;32.650;-16.902;2022-11-11T00:28:59;101732.91;;;17.01;66.02
61026;BME280;46911;32.650;-16.902;2022-11-11T00:31:24;101736.97;;;17.06;66.07
61026;BME280;46911;32.650;-16.902;2022-11-11T00:33:43;101729.63;;;16.97;66.25
61026;BME280;46911;32.650;-16.902;2022-11-11T00:36:04;101736.22;;;17.04;66.43
61026;BME280;46911;32.650;-16.902;2022-11-11T00:38:24;101714.91;;;16.90;66.34
61026;BME280;46911;32.650;-16.902;2022-11-11T00:41:02;101721.75;;;16.94;66.42
61026;BME280;46911;32.650;-16.902;2022-11-11T00:43:23;101728.41;;;17.01;66.45
61026;BME280;46911;32.650;-16.902;2022-11-11T00:45:45;101718.59;;;17.00;66.71
61026;BME280;46911;32.650;-16.902;2022-11-11T00:48:07;101706.81;;;16.90;67.12
61026;BME280;46911;32.650;-16.902;2022-11-11T00:50:45;101714.69;;;16.93;67.14
61026;BME280;46911;32.650;-16.902;2022-11-11T00:53:25;101711.72;;;16.96;67.16
61026;BME280;46911;32.650;-16.902;2022-11-11T00:55:48;101705.59;;;16.94;67.22
61026;BME280;46911;32.650;-16.902;2022-11-11T00:58:07;101691.72;;;16.87;67.13
61026;BME280;46911;32.650;-16.902;2022-11-11T01:00:27;101691.53;;;16.90;66.97
61026;BME280;46911;32.650;-16.902;2022-11-11T01:02:48;101699.47;;;16.92;67.17
61026;BME280;46911;32.650;-16.902;2022-11-11T01:05:08;101698.50;;;16.93;67.36
61026;BME280;46911;32.650;-16.902;2022-11-11T01:07:27;101703.03;;;16.93;67.32
61026;BME280;46911;32.650;-16.902;2022-11-11T01:09:46;101697.50;;;16.94;67.68
61026;BME280;46911;32.650;-16.902;2022-11-11T01:12:08;101688.03;;;16.88;67.75
61026;BME280;46911;32.650;-16.902;2022-11-11T01:14:27;101690.41;;;16.93;68.01
61026;BME280;46911;32.650;-16.902;2022-11-11T01:16:48;101678.13;;;16.89;67.92
61026;BME280;46911;32.650;-16.902;2022-11-11T01:19:10;101687.97;;;17.01;67.88
61026;BME280;46911;32.650;-16.902;2022-11-11T01:21:31;101677.91;;;16.92;67.68
61026;BME280;46911;32.650;-16.902;2022-11-11T01:23:51;101675.22;;;16.92;67.68
61026;BME280;46911;32.650;-16.902;2022-11-11T01:26:17;101674.69;;;16.87;68.17
61026;BME280;46911;32.650;-16.902;2022-11-11T01:28:36;101662.19;;;16.86;68.11
61026;BME280;46911;32.650;-16.902;2022-11-11T01:31:03;101667.75;;;16.96;67.49
61026;BME280;46911;32.650;-16.902;2022-11-11T01:33:23;101653.28;;;16.85;67.56
61026;BME280;46911;32.650;-16.902;2022-11-11T01:35:42;101666.28;;;16.92;67.51
61026;BME280;46911;32.650;-16.902;2022-11-11T01:38:02;101647.25;;;16.82;67.54
61026;BME280;46911;32.650;-16.902;2022-11-11T01:40:21;101646.28;;;16.83;67.57
61026;BME280;46911;32.650;-16.902;2022-11-11T01:43:17;101648.72;;;16.86;67.59
61026;BME280;46911;32.650;-16.902;2022-11-11T01:48:18;101653.63;;;16.81;67.91
61026;BME280;46911;32.650;-16.902;2022-11-11T01:50:58;101639.16;;;16.82;67.57
61026;BME280;46911;32.650;-16.902;2022-11-11T01:53:17;101650.22;;;16.90;67.34
61026;BME280;46911;32.650;-16.902;2022-11-11T01:55:40;101628.91;;;16.76;67.67
61026;BME280;46911;32.650;-16.902;2022-11-11T01:58:03;101640.75;;;16.84;67.56
61026;BME280;46911;32.650;-16.902;2022-11-11T02:00:24;101640.16;;;16.81;67.64
61026;BME280;46911;32.650;-16.902;2022-11-11T02:02:54;101643.34;;;16.74;67.92
61026;BME280;46911;32.650;-16.902;2022-11-11T02:05:17;101637.47;;;16.69;67.93
61026;BME280;46911;32.650;-16.902;2022-11-11T02:07:57;101636.72;;;16.67;68.13
61026;BME280;46911;32.650;-16.902;2022-11-11T02:10:23;101636.63;;;16.69;68.28
61026;BME280;46911;32.650;-16.902;2022-11-11T02:12:45;101633.03;;;16.68;68.47
61026;BME280;46911;32.650;-16.902;2022-11-11T02:15:23;101640.41;;;16.66;68.70
61026;BME280;46911;32.650;-16.902;2022-11-11T02:17:42;101640.41;;;16.66;68.80
61026;BME280;46911;32.650;-16.902;2022-11-11T02:20:02;101632.44;;;16.65;68.87
61026;BME280;46911;32.650;-16.902;2022-11-11T02:25:06;101634.28;;;16.76;68.52
61026;BME280;46911;32.650;-16.902;2022-11-11T02:27:27;101626.66;;;16.81;68.31
61026;BME280;46911;32.650;-16.902;2022-11-11T02:29:51;101624.22;;;16.78;68.52
61026;BME280;46911;32.650;-16.902;2022-11-11T02:32:11;101612.38;;;16.69;68.75
61026;BME280;46911;32.650;-16.902;2022-11-11T02:34:31;101602.69;;;16.66;68.83
61026;BME280;46911;32.650;-16.902;2022-11-11T02:36:51;101613.34;;;16.68;68.87
61026;BME280;46911;32.650;-16.902;2022-11-11T02:39:13;101604.91;;;16.61;69.16
61026;BME280;46911;32.650;-16.902;2022-11-11T02:41:35;101600.59;;;16.59;69.12
61026;BME280;46911;32.650;-16.902;2022-11-11T02:44:13;101602.78;;;16.65;69.35
61026;BME280;46911;32.650;-16.902;2022-11-11T02:46:33;101591.16;;;16.64;69.15
61026;BME280;46911;32.650;-16.902;2022-11-11T02:48:52;101594.63;;;16.66;69.04
61026;BME280;46911;32.650;-16.902;2022-11-11T02:51:11;101586.75;;;16.63;69.06
61026;BME280;46911;32.650;-16.902;2022-11-11T02:53:31;101583.72;;;16.68;68.90
61026;BME280;46911;32.650;-16.902;2022-11-11T02:55:53;101588.47;;;16.64;69.03
61026;BME280;46911;32.650;-16.902;2022-11-11T02:58:14;101585.66;;;16.66;68.81
61026;BME280;46911;32.650;-16.902;2022-11-11T03:00:39;101599.75;;;16.69;68.97
61026;BME280;46911;32.650;-16.902;2022-11-11T03:02:58;101603.28;;;16.70;69.13
61026;BME280;46911;32.650;-16.902;2022-11-11T03:05:18;101585.53;;;16.67;69.19
61026;BME280;46911;32.650;-16.902;2022-11-11T03:07:37;101581.72;;;16.70;69.06
61026;BME280;46911;32.650;-16.902;2022-11-11T03:09:57;101580.28;;;16.66;69.01
61026;BME280;46911;32.650;-16.902;2022-11-11T03:12:16;101582.47;;;16.61;69.28
61026;BME280;46911;32.650;-16.902;2022-11-11T03:14:35;101585.06;;;16.62;69.43
61026;BME280;46911;32.650;-16.902;2022-11-11T03:16:57;101587.84;;;16.61;69.49
61026;BME280;46911;32.650;-16.902;2022-11-11T03:19:36;101577.59;;;16.54;69.68
61026;BME280;46911;32.650;-16.902;2022-11-11T03:22:03;101564.84;;;16.56;69.79
61026;BME280;46911;32.650;-16.902;2022-11-11T03:24:23;101574.38;;;16.61;69.78
61026;BME280;46911;32.650;-16.902;2022-11-11T03:26:42;101566.56;;;16.57;69.63
61026;BME280;46911;32.650;-16.902;2022-11-11T03:29:04;101565.47;;;16.60;69.86
61026;BME280;46911;32.650;-16.902;2022-11-11T03:31:26;101568.03;;;16.62;69.89
61026;BME280;46911;32.650;-16.902;2022-11-11T03:33:46;101569.63;;;16.64;69.90
61026;BME280;46911;32.650;-16.902;2022-11-11T03:36:05;101566.94;;;16.64;69.74
61026;BME280;46911;32.650;-16.902;2022-11-11T03:38:24;101562.66;;;16.62;69.92
61026;BME280;46911;32.650;-16.902;2022-11-11T03:40:45;101555.44;;;16.62;69.92
61026;BME280;46911;32.650;-16.902;2022-11-11T03:43:05;101560.34;;;16.57;70.19
61026;BME280;46911;32.650;-16.902;2022-11-11T03:45:24;101554.81;;;16.59;70.14
61026;BME280;46911;32.650;-16.902;2022-11-11T03:47:43;101555.78;;;16.57;70.23
61026;BME280;46911;32.650;-16.902;2022-11-11T03:50:06;101546.38;;;16.52;70.28
61026;BME280;46911;32.650;-16.902;2022-11-11T03:52:28;101548.19;;;16.51;70.62
61026;BME280;46911;32.650;-16.902;2022-11-11T03:54:47;101561.06;;;16.48;70.47
61026;BME280;46911;32.650;-16.902;2022-11-11T03:57:10;101554.44;;;16.40;70.77
61026;BME280;46911;32.650;-16.902;2022-11-11T03:59:48;101543.66;;;16.40;70.82
61026;BME280;46911;32.650;-16.902;2022-11-11T04:02:13;101538.28;;;16.40;70.89
61026;BME280;46911;32.650;-16.902;2022-11-11T04:04:51;101544.28;;;16.44;70.79
61026;BME280;46911;32.650;-16.902;2022-11-11T04:07:29;101549.94;;;16.41;70.92
61026;BME280;46911;32.650;-16.902;2022-11-11T04:10:07;101544.91;;;16.48;70.76
61026;BME280;46911;32.650;-16.902;2022-11-11T04:12:44;101532.75;;;16.42;70.89
61026;BME280;46911;32.650;-16.902;2022-11-11T04:15:25;101527.16;;;16.45;70.51
61026;BME280;46911;32.650;-16.902;2022-11-11T04:18:03;101530.44;;;16.49;70.39
61026;BME280;46911;32.650;-16.902;2022-11-11T04:20:24;101537.19;;;16.54;70.46
61026;BME280;46911;32.650;-16.902;2022-11-11T04:23:02;101532.53;;;16.56;70.41
61026;BME280;46911;32.650;-16.902;2022-11-11T04:25:24;101530.84;;;16.55;70.47
61026;BME280;46911;32.650;-16.902;2022-11-11T04:28:05;101533.63;;;16.54;70.60
61026;BME280;46911;32.650;-16.902;2022-11-11T04:30:43;101532.75;;;16.42;70.65
61026;BME280;46911;32.650;-16.902;2022-11-11T04:33:02;101542.22;;;16.48;70.76
61026;BME280;46911;32.650;-16.902;2022-11-11T04:35:22;101542.22;;;16.48;70.73
61026;BME280;46911;32.650;-16.902;2022-11-11T04:37:45;101544.16;;;16.46;70.91
61026;BME280;46911;32.650;-16.902;2022-11-11T04:40:08;101536.59;;;16.39;70.93
61026;BME280;46911;32.650;-16.902;2022-11-11T04:42:46;101539.16;;;16.41;71.05
61026;BME280;46911;32.650;-16.902;2022-11-11T04:45:10;101537.56;;;16.38;71.18
61026;BME280;46911;32.650;-16.902;2022-11-11T04:47:55;101539.16;;;16.41;71.33
61026;BME280;46911;32.650;-16.902;2022-11-11T04:50:15;101528.75;;;16.36;71.14
61026;BME280;46911;32.650;-16.902;2022-11-11T04:52:34;101533.50;;;16.44;71.02
61026;BME280;46911;32.650;-16.902;2022-11-11T04:54:55;101521.41;;;16.38;70.96
61026;BME280;46911;32.650;-16.902;2022-11-11T04:57:33;101522.13;;;16.40;70.83
61026;BME280;46911;32.650;-16.902;2022-11-11T04:59:53;101521.28;;;16.40;70.88
61026;BME280;46911;32.650;-16.902;2022-11-11T05:02:17;101522.13;;;16.40;71.07
61026;BME280;46911;32.650;-16.902;2022-11-11T05:04:55;101525.81;;;16.39;70.99
61026;BME280;46911;32.650;-16.902;2022-11-11T05:07:14;101521.88;;;16.32;71.08
61026;BME280;46911;32.650;-16.902;2022-11-11T05:09:52;101521.38;;;16.27;71.01
61026;BME280;46911;32.650;-16.902;2022-11-11T05:12:12;101536.56;;;16.28;71.13
61026;BME280;46911;32.650;-16.902;2022-11-11T05:14:33;101522.63;;;16.23;71.41
61026;BME280;46911;32.650;-16.902;2022-11-11T05:17:11;101533.88;;;16.28;71.30
61026;BME280;46911;32.650;-16.902;2022-11-11T05:19:52;101526.78;;;16.27;71.48
61026;BME280;46911;32.650;-16.902;2022-11-11T05:22:38;101528.88;;;16.35;71.22
61026;BME280;46911;32.650;-16.902;2022-11-11T05:24:59;101528.25;;;16.31;71.47
61026;BME280;46911;32.650;-16.902;2022-11-11T05:27:38;101517.84;;;16.27;71.67
61026;BME280;46911;32.650;-16.902;2022-11-11T05:29:59;101527.66;;;16.28;71.61
61026;BME280;46911;32.650;-16.902;2022-11-11T05:32:20;101526.66;;;16.29;71.59
61026;BME280;46911;32.650;-16.902;2022-11-11T05:34:43;101525.69;;;16.30;71.47
61026;BME280;46911;32.650;-16.902;2022-11-11T05:37:08;101524.56;;;16.32;71.38
61026;BME280;46911;32.650;-16.902;2022-11-11T05:39:27;101523.84;;;16.30;71.42
61026;BME280;46911;32.650;-16.902;2022-11-11T05:41:47;101516.75;;;16.29;71.27
61026;BME280;46911;32.650;-16.902;2022-11-11T05:44:06;101504.03;;;16.20;71.47
61026;BME280;46911;32.650;-16.902;2022-11-11T05:46:26;101514.41;;;16.24;71.57
61026;BME280;46911;32.650;-16.902;2022-11-11T05:48:45;101505.63;;;16.22;71.51
61026;BME280;46911;32.650;-16.902;2022-11-11T05:51:23;101519.56;;;16.28;71.45
61026;BME280;46911;32.650;-16.902;2022-11-11T05:53:48;101518.44;;;16.19;71.64
61026;BME280;46911;32.650;-16.902;2022-11-11T05:56:10;101525.31;;;16.23;71.85
61026;BME280;46911;32.650;-16.902;2022-11-11T05:58:29;101512.81;;;16.22;71.76
61026;BME280;46911;32.650;-16.902;2022-11-11T06:00:51;101515.88;;;16.17;71.87
61026;BME280;46911;32.650;-16.902;2022-11-11T06:03:11;101519.56;;;16.16;71.81
61026;BME280;46911;32.650;-16.902;2022-11-11T06:05:31;101512.44;;;16.15;71.81
61026;BME280;46911;32.650;-16.902;2022-11-11T06:07:50;101512.22;;;16.18;71.68
61026;BME280;46911;32.650;-16.902;2022-11-11T06:10:12;101503.78;;;16.23;71.62
61026;BME280;46911;32.650;-16.902;2022-11-11T06:12:50;101495.69;;;16.23;71.47
61026;BME280;46911;32.650;-16.902;2022-11-11T06:15:28;101495.94;;;16.20;71.58
61026;BME280;46911;32.650;-16.902;2022-11-11T06:17:50;101488.59;;;16.22;71.27
61026;BME280;46911;32.650;-16.902;2022-11-11T06:20:12;101499.00;;;16.27;71.14
61026;BME280;46911;32.650;-16.902;2022-11-11T06:22:33;101477.84;;;16.11;71.39
61026;BME280;46911;32.650;-16.902;2022-11-11T06:25:13;101505.50;;;16.24;71.31
61026;BME280;46911;32.650;-16.902;2022-11-11T06:27:51;101507.22;;;16.25;71.25
61026;BME280;46911;32.650;-16.902;2022-11-11T06:30:10;101506.25;;;16.26;71.40
61026;BME280;46911;32.650;-16.902;2022-11-11T06:32:30;101500.38;;;16.21;71.44
61026;BME280;46911;32.650;-16.902;2022-11-11T06:34:49;101507.34;;;16.23;71.43
61026;BME280;46911;32.650;-16.902;2022-11-11T06:37:09;101497.03;;;16.17;71.31
61026;BME280;46911;32.650;-16.902;2022-11-11T06:39:28;101489.81;;;16.18;71.32
61026;BME280;46911;32.650;-16.902;2022-11-11T06:41:50;101486.41;;;16.16;71.18
61026;BME280;46911;32.650;-16.902;2022-11-11T06:44:12;101485.53;;;16.15;71.20
61026;BME280;46911;32.650;-16.902;2022-11-11T06:46:31;101480.53;;;16.11;71.33
61026;BME280;46911;32.650;-16.902;2022-11-11T06:48:50;101486.53;;;16.14;71.26
61026;BME280;46911;32.650;-16.902;2022-11-11T06:51:13;101471.72;;;16.09;71.24
61026;BME280;46911;32.650;-16.902;2022-11-11T06:53:32;101481.25;;;16.13;71.31
61026;BME280;46911;32.650;-16.902;2022-11-11T06:55:54;101474.66;;;16.05;71.32
61026;BME280;46911;32.650;-16.902;2022-11-11T06:58:15;101480.53;;;16.11;71.40
61026;BME280;46911;32.650;-16.902;2022-11-11T07:00:36;101481.25;;;16.13;71.57
61026;BME280;46911;32.650;-16.902;2022-11-11T07:02:57;101472.09;;;16.04;71.75
61026;BME280;46911;32.650;-16.902;2022-11-11T07:05:16;101471.25;;;16.03;71.70
61026;BME280;46911;32.650;-16.902;2022-11-11T07:07:35;101485.16;;;16.09;71.71
61026;BME280;46911;32.650;-16.902;2022-11-11T07:09:57;101491.91;;;16.03;71.63
61026;BME280;46911;32.650;-16.902;2022-11-11T07:12:21;101498.75;;;16.07;71.61
61026;BME280;46911;32.650;-16.902;2022-11-11T07:14:41;101495.22;;;16.06;71.46
61026;BME280;46911;32.650;-16.902;2022-11-11T07:17:00;101488.34;;;16.02;71.54
61026;BME280;46911;32.650;-16.902;2022-11-11T07:19:19;101496.19;;;16.05;71.53
61026;BME280;46911;32.650;-16.902;2022-11-11T07:21:39;101500.47;;;16.08;71.58
61026;BME280;46911;32.650;-16.902;2022-11-11T07:24:03;101496.19;;;16.05;71.61
61026;BME280;46911;32.650;-16.902;2022-11-11T07:26:23;101511.84;;;16.12;71.59
61026;BME280;46911;32.650;-16.902;2022-11-11T07:28:42;101499.88;;;16.16;71.59
61026;BME280;46911;32.650;-16.902;2022-11-11T07:31:01;101498.03;;;16.16;71.78
61026;BME280;46911;32.650;-16.902;2022-11-11T07:33:21;101488.84;;;16.19;71.63
61026;BME280;46911;32.650;-16.902;2022-11-11T07:35:42;101505.09;;;16.29;71.42
61026;BME280;46911;32.650;-16.902;2022-11-11T07:38:04;101501.31;;;16.31;71.72
61026;BME280;46911;32.650;-16.902;2022-11-11T07:40:26;101501.09;;;16.34;71.08
61026;BME280;46911;32.650;-16.902;2022-11-11T07:42:46;101499.00;;;16.38;70.86
61026;BME280;46911;32.650;-16.902;2022-11-11T07:45:12;101487.84;;;16.31;70.88
61026;BME280;46911;32.650;-16.902;2022-11-11T07:47:32;101489.44;;;16.34;70.45
61026;BME280;46911;32.650;-16.902;2022-11-11T07:49:52;101498.63;;;16.43;70.45
61026;BME280;46911;32.650;-16.902;2022-11-11T07:52:12;101489.59;;;16.44;70.29
61026;BME280;46911;32.650;-16.902;2022-11-11T07:54:31;101500.19;;;16.56;69.99
61026;BME280;46911;32.650;-16.902;2022-11-11T07:56:51;101493.97;;;16.56;69.98
61026;BME280;46911;32.650;-16.902;2022-11-11T07:59:10;101491.50;;;16.64;69.68
61026;BME280;46911;32.650;-16.902;2022-11-11T08:01:29;101503.84;;;16.78;69.48
61026;BME280;46911;32.650;-16.902;2022-11-11T08:03:51;101506.03;;;16.84;68.83
61026;BME280;46911;32.650;-16.902;2022-11-11T08:06:11;101504.69;;;16.90;68.47
61026;BME280;46911;32.650;-16.902;2022-11-11T08:08:30;101505.69;;;16.89;68.62
61026;BME280;46911;32.650;-16.902;2022-11-11T08:10:53;101512.63;;;17.03;68.41
61026;BME280;46911;32.650;-16.902;2022-11-11T08:13:14;101502.84;;;17.02;68.07
61026;BME280;46911;32.650;-16.902;2022-11-11T08:15:54;101515.19;;;17.16;67.72
61026;BME280;46911;32.650;-16.902;2022-11-11T08:18:16;101505.50;;;17.13;67.58
61026;BME280;46911;32.650;-16.902;2022-11-11T08:20:36;101513.69;;;17.23;67.31
61026;BME280;46911;32.650;-16.902;2022-11-11T08:22:56;101511.47;;;17.28;67.02
61026;BME280;46911;32.650;-16.902;2022-11-11T08:25:17;101511.53;;;17.38;66.83
61026;BME280;46911;32.650;-16.902;2022-11-11T08:27:37;101517.53;;;17.42;66.67
61026;BME280;46911;32.650;-16.902;2022-11-11T08:30:03;101520.56;;;17.48;66.77
61026;BME280;46911;32.650;-16.902;2022-11-11T08:32:23;101516.16;;;17.47;66.74
61026;BME280;46911;32.650;-16.902;2022-11-11T08:34:42;101513.06;;;17.52;66.53
61026;BME280;46911;32.650;-16.902;2022-11-11T08:37:02;101525.50;;;17.64;66.54
61026;BME280;46911;32.650;-16.902;2022-11-11T08:39:21;101515.41;;;17.66;66.58
61026;BME280;46911;32.650;-16.902;2022-11-11T08:41:40;101529.00;;;17.76;66.53
61026;BME280;46911;32.650;-16.902;2022-11-11T08:44:00;101528.06;;;17.87;66.20
61026;BME280;46911;32.650;-16.902;2022-11-11T08:46:20;101527.94;;;17.88;66.04
61026;BME280;46911;32.650;-16.902;2022-11-11T08:48:39;101532.44;;;17.99;65.93
61026;BME280;46911;32.650;-16.902;2022-11-11T08:50:58;101527.03;;;17.99;65.97
61026;BME280;46911;32.650;-16.902;2022-11-11T08:53:19;101529.09;;;18.07;65.74
61026;BME280;46911;32.650;-16.902;2022-11-11T08:55:41;101537.97;;;18.19;65.83
61026;BME280;46911;32.650;-16.902;2022-11-11T08:58:03;101542.56;;;18.28;65.62
61026;BME280;46911;32.650;-16.902;2022-11-11T09:00:28;101532.78;;;18.37;65.78
61026;BME280;46911;32.650;-16.902;2022-11-11T09:02:54;101541.78;;;18.47;65.27
61026;BME280;46911;32.650;-16.902;2022-11-11T09:05:13;101531.56;;;18.51;65.24
61026;BME280;46911;32.650;-16.902;2022-11-11T09:07:32;101542.69;;;18.67;64.95
61026;BME280;46911;32.650;-16.902;2022-11-11T09:09:52;101542.72;;;18.77;65.15
61026;BME280;46911;32.650;-16.902;2022-11-11T09:12:11;101537.50;;;18.85;64.58
61026;BME280;46911;32.650;-16.902;2022-11-11T09:14:33;101541.69;;;18.99;64.56
61026;BME280;46911;32.650;-16.902;2022-11-11T09:16:54;101546.53;;;19.15;64.17
61026;BME280;46911;32.650;-16.902;2022-11-11T09:19:16;101551.13;;;19.34;64.23
61026;BME280;46911;32.650;-16.902;2022-11-11T09:21:38;101547.53;;;19.53;63.63
61026;BME280;46911;32.650;-16.902;2022-11-11T09:23:59;101538.00;;;19.69;63.32
61026;BME280;46911;32.650;-16.902;2022-11-11T09:26:21;101550.81;;;19.96;62.82
61026;BME280;46911;32.650;-16.902;2022-11-11T09:28:43;101552.91;;;20.22;61.97
61026;BME280;46911;32.650;-16.902;2022-11-11T09:31:03;101545.97;;;20.47;61.18
61026;BME280;46911;32.650;-16.902;2022-11-11T09:33:22;101545.94;;;20.85;60.57
61026;BME280;46911;32.650;-16.902;2022-11-11T09:35:42;101547.91;;;21.83;59.24
61026;BME280;46911;32.650;-16.902;2022-11-11T09:38:03;101539.44;;;23.57;56.07
61026;BME280;46911;32.650;-16.902;2022-11-11T09:40:43;101535.09;;;25.63;49.63
61026;BME280;46911;32.650;-16.902;2022-11-11T09:43:17;101542.75;;;27.60;46.00
61026;BME280;46911;32.650;-16.902;2022-11-11T09:48:33;101538.69;;;28.34;41.76
61026;BME280;46911;32.650;-16.902;2022-11-11T09:50:58;101528.75;;;28.75;41.57
61026;BME280;46911;32.650;-16.902;2022-11-11T09:53:28;101535.47;;;29.28;40.12
61026;BME280;46911;32.650;-16.902;2022-11-11T09:58:38;101548.78;;;30.18;36.87
61026;BME280;46911;32.650;-16.902;2022-11-11T10:01:06;101536.47;;;29.13;38.99
61026;BME280;46911;32.650;-16.902;2022-11-11T10:03:28;101538.41;;;29.26;39.92
61026;BME280;46911;32.650;-16.902;2022-11-11T10:06:06;101538.44;;;29.53;38.98
61026;BME280;46911;32.650;-16.902;2022-11-11T10:08:59;101548.78;;;30.18;38.03
61026;BME280;46911;32.650;-16.902;2022-11-11T10:11:52;101543.50;;;29.29;40.20
61026;BME280;46911;32.650;-16.902;2022-11-11T10:14:22;101545.75;;;27.94;43.87
61026;BME280;46911;32.650;-16.902;2022-11-11T10:16:53;101550.41;;;27.06;45.19
61026;BME280;46911;32.650;-16.902;2022-11-11T10:19:28;101543.03;;;27.44;45.30
61026;BME280;46911;32.650;-16.902;2022-11-11T10:21:53;101541.56;;;27.69;44.75
61026;BME280;46911;32.650;-16.902;2022-11-11T10:24:32;101549.22;;;27.52;45.47
61026;BME280;46911;32.650;-16.902;2022-11-11T10:26:53;101536.03;;;27.91;42.94
61026;BME280;46911;32.650;-16.902;2022-11-11T10:29:21;101540.78;;;26.74;46.54
61026;BME280;46911;32.650;-16.902;2022-11-11T10:31:45;101547.31;;;27.31;46.16
61026;BME280;46911;32.650;-16.902;2022-11-11T10:34:11;101552.34;;;26.61;46.98
61026;BME280;46911;32.650;-16.902;2022-11-11T10:36:42;101552.75;;;26.43;48.04
61026;BME280;46911;32.650;-16.902;2022-11-11T10:39:10;101537.50;;;28.15;44.80
61026;BME280;46911;32.650;-16.902;2022-11-11T10:41:42;101549.34;;;27.44;45.88
61026;BME280;46911;32.650;-16.902;2022-11-11T10:44:24;101554.53;;;26.21;47.33
61026;BME280;46911;32.650;-16.902;2022-11-11T10:46:55;101534.06;;;27.78;45.06
61026;BME280;46911;32.650;-16.902;2022-11-11T10:49:20;101551.22;;;27.22;45.65
61026;BME280;46911;32.650;-16.902;2022-11-11T10:51:49;101536.84;;;28.13;44.57
61026;BME280;46911;32.650;-16.902;2022-11-11T10:54:44;101542.75;;;27.60;45.52
61026;BME280;46911;32.650;-16.902;2022-11-11T10:57:18;101548.13;;;26.73;47.58
61026;BME280;46911;32.650;-16.902;2022-11-11T11:02:28;101542.13;;;27.00;46.58
61026;BME280;46911;32.650;-16.902;2022-11-11T11:04:56;101542.88;;;27.09;46.94
61026;BME280;46911;32.650;-16.902;2022-11-11T11:07:24;101536.38;;;26.95;47.31
61026;BME280;46911;32.650;-16.902;2022-11-11T11:09:53;101548.59;;;26.62;46.86
61026;BME280;46911;32.650;-16.902;2022-11-11T11:12:27;101548.22;;;27.17;45.97
61026;BME280;46911;32.650;-16.902;2022-11-11T11:14:53;101546.38;;;27.02;45.97
61026;BME280;46911;32.650;-16.902;2022-11-11T11:17:24;101549.91;;;26.66;47.87
61026;BME280;46911;32.650;-16.902;2022-11-11T11:20:27;101540.88;;;27.89;44.80
61026;BME280;46911;32.650;-16.902;2022-11-11T11:22:49;101537.25;;;27.60;44.85
61026;BME280;46911;32.650;-16.902;2022-11-11T11:25:10;101552.00;;;26.79;47.06
61026;BME280;46911;32.650;-16.902;2022-11-11T11:27:30;101540.00;;;27.17;47.12
61026;BME280;46911;32.650;-16.902;2022-11-11T11:29:52;101545.06;;;26.98;47.28
61026;BME280;46911;32.650;-16.902;2022-11-11T11:32:19;101542.00;;;26.27;49.02
61026;BME280;46911;32.650;-16.902;2022-11-11T11:34:50;101536.19;;;26.96;46.88
61026;BME280;46911;32.650;-16.902;2022-11-11T11:37:16;101539.75;;;27.55;46.13
61026;BME280;46911;32.650;-16.902;2022-11-11T11:39:39;101528.00;;;28.18;45.95
61026;BME280;46911;32.650;-16.902;2022-11-11T11:42:01;101534.50;;;28.45;44.84
61026;BME280;46911;32.650;-16.902;2022-11-11T11:44:38;101528.00;;;29.15;42.20
61026;BME280;46911;32.650;-16.902;2022-11-11T11:55:05;101527.25;;;29.41;42.81
61026;BME280;46911;32.650;-16.902;2022-11-11T12:00:04;101525.97;;;30.04;41.25
61026;BME280;46911;32.650;-16.902;2022-11-11T12:17:42;101514.13;;;31.90;36.09
61026;BME280;46911;32.650;-16.902;2022-11-11T12:23:23;101511.44;;;30.42;39.70
61026;BME280;46911;32.650;-16.902;2022-11-11T12:25:58;101504.16;;;29.29;39.72
61026;BME280;46911;32.650;-16.902;2022-11-11T12:30:54;101501.81;;;31.42;36.90
61026;BME280;46911;32.650;-16.902;2022-11-11T12:38:43;101472.66;;;31.53;37.42
61026;BME280;46911;32.650;-16.902;2022-11-11T12:44:12;101476.03;;;31.04;37.48
61026;BME280;46911;32.650;-16.902;2022-11-11T12:49:39;101479.31;;;30.22;39.28
61026;BME280;46911;32.650;-16.902;2022-11-11T12:52:34;101474.31;;;30.06;39.82
61026;BME280;46911;32.650;-16.902;2022-11-11T13:00:21;101451.34;;;30.39;38.91
61026;BME280;46911;32.650;-16.902;2022-11-11T13:08:40;101432.34;;;32.82;35.15
61026;BME280;46911;32.650;-16.902;2022-11-11T13:11:20;101431.44;;;34.07;31.43
61026;BME280;46911;32.650;-16.902;2022-11-11T13:16:24;101423.84;;;31.10;36.80
61026;BME280;46911;32.650;-16.902;2022-11-11T13:19:04;101428.25;;;31.36;36.48
61026;BME280;46911;32.650;-16.902;2022-11-11T13:21:51;101427.97;;;30.94;37.65
61026;BME280;46911;32.650;-16.902;2022-11-11T13:24:19;101425.09;;;30.36;38.83
61026;BME280;46911;32.650;-16.902;2022-11-11T13:26:45;101428.66;;;29.78;38.97
61026;BME280;46911;32.650;-16.902;2022-11-11T13:31:53;101416.56;;;33.25;34.01